sensor_id;sensor_type;location;lat;lon;timestamp;P1;durP1;ratioP1;P2;durP2;ratioP2
76262;SDS011;65080;50.908;6.916;2023-06-01T00:01:33;6.60;;;2.67;;
76262;SDS011;65080;50.908;6.916;2023-06-01T00:04:04;4.20;;;2.50;;
76262;SDS011;65080;50.908;6.916;2023-06-01T00:06:34;3.10;;;2.27;;
76262;SDS011;65080;50.908;6.916;2023-06-01T00:09:02;8.70;;;3.20;;
76262;SDS011;65080;50.908;6.916;2023-06-01T00:11:32;5.47;;;2.90;;
76262;SDS011;65080;50.908;6.916;2023-06-01T00:14:01;5.87;;;2.77;;
76262;SDS011;65080;50.908;6.916;2023-06-01T00:16:30;6.10;;;3.43;;
76262;SDS011;65080;50.908;6.916;2023-06-01T00:18:58;7.57;;;3.13;;
76262;SDS011;65080;50.908;6.916;2023-06-01T00:21:28;9.80;;;3.20;;
76262;SDS011;65080;50.908;6.916;2023-06-01T00:23:59;6.67;;;3.37;;
76262;SDS011;65080;50.908;6.916;2023-06-01T00:26:28;4.10;;;3.20;;
76262;SDS011;65080;50.908;6.916;2023-06-01T00:29:00;5.43;;;3.23;;
76262;SDS011;65080;50.908;6.916;2023-06-01T00:31:28;8.30;;;2.70;;
76262;SDS011;65080;50.908;6.916;2023-06-01T00:33:56;8.73;;;3.87;;
76262;SDS011;65080;50.908;6.916;2023-06-01T00:36:25;5.00;;;2.50;;
76262;SDS011;65080;50.908;6.916;2023-06-01T00:38:53;6.23;;;2.80;;
76262;SDS011;65080;50.908;6.916;2023-06-01T00:41:28;4.60;;;2.93;;
76262;SDS011;65080;50.908;6.916;2023-06-01T00:43:56;4.80;;;2.63;;
76262;SDS011;65080;50.908;6.916;2023-06-01T00:46:26;7.77;;;2.80;;
76262;SDS011;65080;50.908;6.916;2023-06-01T00:48:55;6.20;;;2.93;;
76262;SDS011;65080;50.908;6.916;2023-06-01T00:51:23;5.20;;;2.40;;
76262;SDS011;65080;50.908;6.916;2023-06-01T00:53:52;5.07;;;3.03;;
76262;SDS011;65080;50.908;6.916;2023-06-01T00:56:20;5.80;;;3.27;;
76262;SDS011;65080;50.908;6.916;2023-06-01T00:58:49;8.57;;;3.30;;
76262;SDS011;65080;50.908;6.916;2023-06-01T01:01:17;4.37;;;3.40;;
76262;SDS011;65080;50.908;6.916;2023-06-01T01:03:48;5.93;;;3.23;;
76262;SDS011;65080;50.908;6.916;2023-06-01T01:06:27;5.93;;;2.97;;
76262;SDS011;65080;50.908;6.916;2023-06-01T01:09:10;4.23;;;3.10;;
76262;SDS011;65080;50.908;6.916;2023-06-01T01:11:51;6.67;;;3.43;;
76262;SDS011;65080;50.908;6.916;2023-06-01T01:14:25;4.73;;;3.40;;
76262;SDS011;65080;50.908;6.916;2023-06-01T01:17:02;5.37;;;2.70;;
76262;SDS011;65080;50.908;6.916;2023-06-01T01:19:52;5.13;;;3.07;;
76262;SDS011;65080;50.908;6.916;2023-06-01T01:25:35;9.63;;;3.47;;
76262;SDS011;65080;50.908;6.916;2023-06-01T01:28:35;8.80;;;3.20;;
76262;SDS011;65080;50.908;6.916;2023-06-01T01:31:08;7.53;;;3.13;;
76262;SDS011;65080;50.908;6.916;2023-06-01T01:33:40;7.00;;;3.10;;
76262;SDS011;65080;50.908;6.916;2023-06-01T01:36:09;7.83;;;4.27;;
76262;SDS011;65080;50.908;6.916;2023-06-01T01:38:39;7.40;;;3.20;;
76262;SDS011;65080;50.908;6.916;2023-06-01T01:41:07;6.00;;;3.60;;
76262;SDS011;65080;50.908;6.916;2023-06-01T01:43:38;8.50;;;3.90;;
76262;SDS011;65080;50.908;6.916;2023-06-01T01:46:10;6.43;;;3.13;;
76262;SDS011;65080;50.908;6.916;2023-06-01T01:48:48;8.90;;;3.40;;
76262;SDS011;65080;50.908;6.916;2023-06-01T01:51:29;8.17;;;3.20;;
76262;SDS011;65080;50.908;6.916;2023-06-01T01:54:04;6.03;;;3.53;;
76262;SDS011;65080;50.908;6.916;2023-06-01T01:56:34;7.30;;;3.50;;
76262;SDS011;65080;50.908;6.916;2023-06-01T01:59:05;6.03;;;2.90;;
76262;SDS011;65080;50.908;6.916;2023-06-01T02:01:34;4.90;;;2.63;;
76262;SDS011;65080;50.908;6.916;2023-06-01T02:04:03;8.60;;;3.23;;
76262;SDS011;65080;50.908;6.916;2023-06-01T02:06:34;8.93;;;3.93;;
76262;SDS011;65080;50.908;6.916;2023-06-01T02:09:03;11.57;;;6.27;;
76262;SDS011;65080;50.908;6.916;2023-06-01T02:11:33;10.23;;;4.37;;
76262;SDS011;65080;50.908;6.916;2023-06-01T02:14:02;4.63;;;2.87;;
76262;SDS011;65080;50.908;6.916;2023-06-01T02:16:32;7.10;;;3.47;;
76262;SDS011;65080;50.908;6.916;2023-06-01T02:19:01;5.90;;;3.10;;
76262;SDS011;65080;50.908;6.916;2023-06-01T02:21:30;5.47;;;3.50;;
76262;SDS011;65080;50.908;6.916;2023-06-01T02:23:59;6.60;;;3.83;;
76262;SDS011;65080;50.908;6.916;2023-06-01T02:26:31;5.30;;;2.80;;
76262;SDS011;65080;50.908;6.916;2023-06-01T02:29:01;3.70;;;2.70;;
76262;SDS011;65080;50.908;6.916;2023-06-01T02:31:33;5.40;;;3.70;;
76262;SDS011;65080;50.908;6.916;2023-06-01T02:34:02;9.20;;;3.90;;
76262;SDS011;65080;50.908;6.916;2023-06-01T02:36:31;7.27;;;3.80;;
76262;SDS011;65080;50.908;6.916;2023-06-01T02:38:59;4.93;;;3.10;;
76262;SDS011;65080;50.908;6.916;2023-06-01T02:41:27;8.90;;;3.00;;
76262;SDS011;65080;50.908;6.916;2023-06-01T02:43:56;7.00;;;3.47;;
76262;SDS011;65080;50.908;6.916;2023-06-01T02:46:24;6.47;;;3.97;;
76262;SDS011;65080;50.908;6.916;2023-06-01T02:48:54;7.50;;;3.10;;
76262;SDS011;65080;50.908;6.916;2023-06-01T02:51:22;7.03;;;3.50;;
76262;SDS011;65080;50.908;6.916;2023-06-01T02:53:50;4.70;;;3.50;;
76262;SDS011;65080;50.908;6.916;2023-06-01T02:56:19;4.80;;;3.30;;
76262;SDS011;65080;50.908;6.916;2023-06-01T02:58:48;4.30;;;3.10;;
76262;SDS011;65080;50.908;6.916;2023-06-01T03:01:16;8.10;;;3.50;;
76262;SDS011;65080;50.908;6.916;2023-06-01T03:03:47;4.67;;;3.00;;
76262;SDS011;65080;50.908;6.916;2023-06-01T03:06:20;4.10;;;3.17;;
76262;SDS011;65080;50.908;6.916;2023-06-01T03:08:50;6.97;;;3.27;;
76262;SDS011;65080;50.908;6.916;2023-06-01T03:11:18;8.60;;;3.93;;
76262;SDS011;65080;50.908;6.916;2023-06-01T03:13:47;8.10;;;4.00;;
76262;SDS011;65080;50.908;6.916;2023-06-01T03:16:15;4.73;;;2.67;;
76262;SDS011;65080;50.908;6.916;2023-06-01T03:18:44;5.13;;;3.50;;
76262;SDS011;65080;50.908;6.916;2023-06-01T03:21:12;5.40;;;3.50;;
76262;SDS011;65080;50.908;6.916;2023-06-01T03:23:44;6.50;;;3.60;;
76262;SDS011;65080;50.908;6.916;2023-06-01T03:26:12;6.40;;;3.20;;
76262;SDS011;65080;50.908;6.916;2023-06-01T03:28:40;9.40;;;3.53;;
76262;SDS011;65080;50.908;6.916;2023-06-01T03:31:09;5.40;;;3.60;;
76262;SDS011;65080;50.908;6.916;2023-06-01T03:33:38;4.00;;;3.10;;
76262;SDS011;65080;50.908;6.916;2023-06-01T03:36:06;7.53;;;3.73;;
76262;SDS011;65080;50.908;6.916;2023-06-01T03:38:35;11.13;;;3.70;;
76262;SDS011;65080;50.908;6.916;2023-06-01T03:41:05;12.33;;;3.50;;
76262;SDS011;65080;50.908;6.916;2023-06-01T03:43:33;5.83;;;3.40;;
76262;SDS011;65080;50.908;6.916;2023-06-01T03:46:01;4.53;;;3.70;;
76262;SDS011;65080;50.908;6.916;2023-06-01T03:48:30;7.80;;;3.73;;
76262;SDS011;65080;50.908;6.916;2023-06-01T03:50:58;6.83;;;3.60;;
76262;SDS011;65080;50.908;6.916;2023-06-01T03:53:27;6.47;;;3.50;;
76262;SDS011;65080;50.908;6.916;2023-06-01T03:55:57;9.00;;;4.37;;
76262;SDS011;65080;50.908;6.916;2023-06-01T03:58:28;5.07;;;3.63;;
76262;SDS011;65080;50.908;6.916;2023-06-01T04:00:58;7.80;;;4.63;;
76262;SDS011;65080;50.908;6.916;2023-06-01T04:03:28;8.03;;;4.50;;
76262;SDS011;65080;50.908;6.916;2023-06-01T04:05:56;8.87;;;4.10;;
76262;SDS011;65080;50.908;6.916;2023-06-01T04:08:26;11.87;;;4.77;;
76262;SDS011;65080;50.908;6.916;2023-06-01T04:10:56;8.40;;;4.90;;
76262;SDS011;65080;50.908;6.916;2023-06-01T04:13:25;11.20;;;5.53;;
76262;SDS011;65080;50.908;6.916;2023-06-01T04:15:57;9.63;;;5.37;;
76262;SDS011;65080;50.908;6.916;2023-06-01T04:18:26;10.60;;;5.90;;
76262;SDS011;65080;50.908;6.916;2023-06-01T04:20:55;13.73;;;6.40;;
76262;SDS011;65080;50.908;6.916;2023-06-01T04:23:23;9.50;;;5.30;;
76262;SDS011;65080;50.908;6.916;2023-06-01T04:25:52;9.47;;;5.50;;
76262;SDS011;65080;50.908;6.916;2023-06-01T04:28:25;13.73;;;6.40;;
76262;SDS011;65080;50.908;6.916;2023-06-01T04:30:54;9.93;;;5.70;;
76262;SDS011;65080;50.908;6.916;2023-06-01T04:33:24;15.60;;;8.20;;
76262;SDS011;65080;50.908;6.916;2023-06-01T04:35:54;14.40;;;7.57;;
76262;SDS011;65080;50.908;6.916;2023-06-01T04:38:23;11.23;;;7.50;;
76262;SDS011;65080;50.908;6.916;2023-06-01T04:40:52;12.63;;;7.43;;
76262;SDS011;65080;50.908;6.916;2023-06-01T04:43:21;8.70;;;6.27;;
76262;SDS011;65080;50.908;6.916;2023-06-01T04:45:50;12.77;;;7.40;;
76262;SDS011;65080;50.908;6.916;2023-06-01T04:48:18;14.17;;;8.30;;
76262;SDS011;65080;50.908;6.916;2023-06-01T04:50:49;15.67;;;7.40;;
76262;SDS011;65080;50.908;6.916;2023-06-01T04:53:17;10.47;;;7.77;;
76262;SDS011;65080;50.908;6.916;2023-06-01T04:55:46;12.70;;;8.47;;
76262;SDS011;65080;50.908;6.916;2023-06-01T04:58:15;16.13;;;8.27;;
76262;SDS011;65080;50.908;6.916;2023-06-01T05:00:43;14.30;;;9.87;;
76262;SDS011;65080;50.908;6.916;2023-06-01T05:03:11;12.93;;;8.53;;
76262;SDS011;65080;50.908;6.916;2023-06-01T05:05:40;13.60;;;8.33;;
76262;SDS011;65080;50.908;6.916;2023-06-01T05:08:09;13.03;;;8.87;;
76262;SDS011;65080;50.908;6.916;2023-06-01T05:10:38;14.40;;;8.80;;
76262;SDS011;65080;50.908;6.916;2023-06-01T05:13:06;12.90;;;9.70;;
76262;SDS011;65080;50.908;6.916;2023-06-01T05:15:35;17.50;;;10.10;;
76262;SDS011;65080;50.908;6.916;2023-06-01T05:18:04;23.53;;;10.30;;
76262;SDS011;65080;50.908;6.916;2023-06-01T05:20:32;23.63;;;12.60;;
76262;SDS011;65080;50.908;6.916;2023-06-01T05:23:01;15.83;;;9.87;;
76262;SDS011;65080;50.908;6.916;2023-06-01T05:25:31;12.50;;;9.77;;
76262;SDS011;65080;50.908;6.916;2023-06-01T05:28:07;23.03;;;11.77;;
76262;SDS011;65080;50.908;6.916;2023-06-01T05:30:45;17.13;;;10.77;;
76262;SDS011;65080;50.908;6.916;2023-06-01T05:33:13;15.60;;;10.23;;
76262;SDS011;65080;50.908;6.916;2023-06-01T05:35:42;18.63;;;13.03;;
76262;SDS011;65080;50.908;6.916;2023-06-01T05:38:10;15.67;;;11.10;;
76262;SDS011;65080;50.908;6.916;2023-06-01T05:40:43;23.00;;;13.60;;
76262;SDS011;65080;50.908;6.916;2023-06-01T05:43:13;26.77;;;13.83;;
76262;SDS011;65080;50.908;6.916;2023-06-01T05:45:42;22.90;;;12.37;;
76262;SDS011;65080;50.908;6.916;2023-06-01T05:48:11;19.97;;;13.70;;
76262;SDS011;65080;50.908;6.916;2023-06-01T05:50:40;21.20;;;14.07;;
76262;SDS011;65080;50.908;6.916;2023-06-01T05:53:09;21.00;;;14.20;;
76262;SDS011;65080;50.908;6.916;2023-06-01T05:55:37;26.53;;;14.53;;
76262;SDS011;65080;50.908;6.916;2023-06-01T05:58:08;22.43;;;14.60;;
76262;SDS011;65080;50.908;6.916;2023-06-01T06:00:36;24.83;;;15.27;;
76262;SDS011;65080;50.908;6.916;2023-06-01T06:03:05;23.80;;;15.63;;
76262;SDS011;65080;50.908;6.916;2023-06-01T06:05:38;25.07;;;15.20;;
76262;SDS011;65080;50.908;6.916;2023-06-01T06:08:07;30.30;;;16.97;;
76262;SDS011;65080;50.908;6.916;2023-06-01T06:10:37;29.93;;;16.90;;
76262;SDS011;65080;50.908;6.916;2023-06-01T06:13:05;22.03;;;14.50;;
76262;SDS011;65080;50.908;6.916;2023-06-01T06:15:35;26.90;;;16.30;;
76262;SDS011;65080;50.908;6.916;2023-06-01T06:18:03;22.70;;;14.80;;
76262;SDS011;65080;50.908;6.916;2023-06-01T06:20:32;30.73;;;18.03;;
76262;SDS011;65080;50.908;6.916;2023-06-01T06:23:00;29.43;;;18.57;;
76262;SDS011;65080;50.908;6.916;2023-06-01T06:25:29;26.80;;;18.40;;
76262;SDS011;65080;50.908;6.916;2023-06-01T06:27:58;36.47;;;19.97;;
76262;SDS011;65080;50.908;6.916;2023-06-01T06:30:26;33.23;;;19.67;;
76262;SDS011;65080;50.908;6.916;2023-06-01T06:32:57;29.83;;;20.43;;
76262;SDS011;65080;50.908;6.916;2023-06-01T06:35:25;35.30;;;19.87;;
76262;SDS011;65080;50.908;6.916;2023-06-01T06:37:56;31.93;;;21.10;;
76262;SDS011;65080;50.908;6.916;2023-06-01T06:40:25;28.90;;;19.90;;
76262;SDS011;65080;50.908;6.916;2023-06-01T06:42:54;37.50;;;20.67;;
76262;SDS011;65080;50.908;6.916;2023-06-01T06:45:22;27.73;;;20.47;;
76262;SDS011;65080;50.908;6.916;2023-06-01T06:47:50;28.50;;;19.50;;
76262;SDS011;65080;50.908;6.916;2023-06-01T06:50:20;27.20;;;19.10;;
76262;SDS011;65080;50.908;6.916;2023-06-01T06:52:49;29.03;;;19.30;;
76262;SDS011;65080;50.908;6.916;2023-06-01T06:55:18;29.57;;;18.07;;
76262;SDS011;65080;50.908;6.916;2023-06-01T06:57:47;23.20;;;17.50;;
76262;SDS011;65080;50.908;6.916;2023-06-01T07:00:16;25.33;;;16.73;;
76262;SDS011;65080;50.908;6.916;2023-06-01T07:02:49;27.70;;;17.90;;
76262;SDS011;65080;50.908;6.916;2023-06-01T07:05:18;31.63;;;19.73;;
76262;SDS011;65080;50.908;6.916;2023-06-01T07:07:48;34.57;;;19.10;;
76262;SDS011;65080;50.908;6.916;2023-06-01T07:10:16;32.03;;;19.57;;
76262;SDS011;65080;50.908;6.916;2023-06-01T07:12:45;25.97;;;19.90;;
76262;SDS011;65080;50.908;6.916;2023-06-01T07:15:14;28.77;;;19.37;;
76262;SDS011;65080;50.908;6.916;2023-06-01T07:17:45;30.97;;;19.10;;
76262;SDS011;65080;50.908;6.916;2023-06-01T07:20:17;28.03;;;19.60;;
76262;SDS011;65080;50.908;6.916;2023-06-01T07:22:54;28.00;;;19.00;;
76262;SDS011;65080;50.908;6.916;2023-06-01T07:25:24;30.03;;;20.10;;
76262;SDS011;65080;50.908;6.916;2023-06-01T07:27:55;29.23;;;19.60;;
76262;SDS011;65080;50.908;6.916;2023-06-01T07:30:48;25.43;;;17.23;;
76262;SDS011;65080;50.908;6.916;2023-06-01T07:33:17;25.30;;;17.80;;
76262;SDS011;65080;50.908;6.916;2023-06-01T07:35:48;25.83;;;18.00;;
76262;SDS011;65080;50.908;6.916;2023-06-01T07:38:21;27.80;;;19.37;;
76262;SDS011;65080;50.908;6.916;2023-06-01T07:40:58;27.47;;;18.80;;
76262;SDS011;65080;50.908;6.916;2023-06-01T07:43:37;25.60;;;19.00;;
76262;SDS011;65080;50.908;6.916;2023-06-01T07:46:08;28.20;;;20.07;;
76262;SDS011;65080;50.908;6.916;2023-06-01T07:48:45;26.10;;;20.80;;
76262;SDS011;65080;50.908;6.916;2023-06-01T07:51:13;35.90;;;21.00;;
76262;SDS011;65080;50.908;6.916;2023-06-01T07:53:44;25.60;;;19.50;;
76262;SDS011;65080;50.908;6.916;2023-06-01T07:56:16;27.90;;;18.53;;
76262;SDS011;65080;50.908;6.916;2023-06-01T07:58:45;25.50;;;18.10;;
76262;SDS011;65080;50.908;6.916;2023-06-01T08:01:17;30.30;;;18.57;;
76262;SDS011;65080;50.908;6.916;2023-06-01T08:03:47;26.70;;;17.97;;
76262;SDS011;65080;50.908;6.916;2023-06-01T08:06:18;23.33;;;17.30;;
76262;SDS011;65080;50.908;6.916;2023-06-01T08:09:06;27.03;;;17.70;;
76262;SDS011;65080;50.908;6.916;2023-06-01T08:12:00;26.20;;;18.07;;
76262;SDS011;65080;50.908;6.916;2023-06-01T08:14:30;27.07;;;17.20;;
76262;SDS011;65080;50.908;6.916;2023-06-01T08:17:04;29.30;;;19.07;;
76262;SDS011;65080;50.908;6.916;2023-06-01T08:19:39;27.80;;;19.80;;
76262;SDS011;65080;50.908;6.916;2023-06-01T08:22:19;28.00;;;19.70;;
76262;SDS011;65080;50.908;6.916;2023-06-01T08:24:54;27.20;;;18.80;;
76262;SDS011;65080;50.908;6.916;2023-06-01T08:27:24;26.30;;;18.57;;
76262;SDS011;65080;50.908;6.916;2023-06-01T08:29:55;29.50;;;20.90;;
76262;SDS011;65080;50.908;6.916;2023-06-01T08:32:27;27.63;;;19.70;;
76262;SDS011;65080;50.908;6.916;2023-06-01T08:34:56;30.63;;;20.37;;
76262;SDS011;65080;50.908;6.916;2023-06-01T08:37:28;29.60;;;21.50;;
76262;SDS011;65080;50.908;6.916;2023-06-01T08:39:59;26.27;;;19.37;;
76262;SDS011;65080;50.908;6.916;2023-06-01T08:42:33;27.73;;;19.93;;
76262;SDS011;65080;50.908;6.916;2023-06-01T08:45:07;28.47;;;19.40;;
76262;SDS011;65080;50.908;6.916;2023-06-01T08:47:40;35.90;;;21.80;;
76262;SDS011;65080;50.908;6.916;2023-06-01T08:50:09;23.07;;;17.90;;
76262;SDS011;65080;50.908;6.916;2023-06-01T08:52:38;37.27;;;17.63;;
76262;SDS011;65080;50.908;6.916;2023-06-01T08:55:15;26.90;;;17.90;;
76262;SDS011;65080;50.908;6.916;2023-06-01T08:57:44;25.07;;;17.87;;
76262;SDS011;65080;50.908;6.916;2023-06-01T09:00:15;25.53;;;17.57;;
76262;SDS011;65080;50.908;6.916;2023-06-01T09:02:44;25.10;;;18.23;;
76262;SDS011;65080;50.908;6.916;2023-06-01T09:05:13;25.90;;;18.40;;
76262;SDS011;65080;50.908;6.916;2023-06-01T09:07:44;23.87;;;17.10;;
76262;SDS011;65080;50.908;6.916;2023-06-01T09:10:15;23.87;;;17.73;;
76262;SDS011;65080;50.908;6.916;2023-06-01T09:12:50;28.43;;;17.23;;
76262;SDS011;65080;50.908;6.916;2023-06-01T09:15:19;31.30;;;17.50;;
76262;SDS011;65080;50.908;6.916;2023-06-01T09:17:49;26.47;;;17.87;;
76262;SDS011;65080;50.908;6.916;2023-06-01T09:20:22;27.00;;;17.57;;
76262;SDS011;65080;50.908;6.916;2023-06-01T09:22:52;19.97;;;15.50;;
76262;SDS011;65080;50.908;6.916;2023-06-01T09:25:24;24.30;;;16.80;;
76262;SDS011;65080;50.908;6.916;2023-06-01T09:27:55;20.80;;;15.50;;
76262;SDS011;65080;50.908;6.916;2023-06-01T09:30:25;21.97;;;15.07;;
76262;SDS011;65080;50.908;6.916;2023-06-01T09:33:11;18.80;;;13.17;;
76262;SDS011;65080;50.908;6.916;2023-06-01T09:35:44;20.53;;;14.53;;
76262;SDS011;65080;50.908;6.916;2023-06-01T09:38:19;22.90;;;14.63;;
76262;SDS011;65080;50.908;6.916;2023-06-01T09:40:58;25.00;;;14.77;;
76262;SDS011;65080;50.908;6.916;2023-06-01T09:43:28;19.93;;;14.00;;
76262;SDS011;65080;50.908;6.916;2023-06-01T09:46:06;21.87;;;15.07;;
76262;SDS011;65080;50.908;6.916;2023-06-01T09:48:36;22.23;;;15.73;;
76262;SDS011;65080;50.908;6.916;2023-06-01T09:51:05;16.30;;;13.00;;
76262;SDS011;65080;50.908;6.916;2023-06-01T09:53:49;20.27;;;15.10;;
76262;SDS011;65080;50.908;6.916;2023-06-01T09:56:19;18.80;;;14.67;;
76262;SDS011;65080;50.908;6.916;2023-06-01T09:58:47;21.23;;;14.73;;
76262;SDS011;65080;50.908;6.916;2023-06-01T10:01:23;22.23;;;15.03;;
76262;SDS011;65080;50.908;6.916;2023-06-01T10:03:53;21.77;;;14.90;;
76262;SDS011;65080;50.908;6.916;2023-06-01T10:06:24;16.37;;;12.63;;
76262;SDS011;65080;50.908;6.916;2023-06-01T10:08:52;21.10;;;14.63;;
76262;SDS011;65080;50.908;6.916;2023-06-01T10:11:23;19.57;;;14.30;;
76262;SDS011;65080;50.908;6.916;2023-06-01T10:13:52;24.03;;;16.03;;
76262;SDS011;65080;50.908;6.916;2023-06-01T10:16:22;20.90;;;14.60;;
76262;SDS011;65080;50.908;6.916;2023-06-01T10:18:51;21.83;;;13.80;;
76262;SDS011;65080;50.908;6.916;2023-06-01T10:21:20;20.20;;;13.97;;
76262;SDS011;65080;50.908;6.916;2023-06-01T10:23:49;17.80;;;12.53;;
76262;SDS011;65080;50.908;6.916;2023-06-01T10:26:18;21.57;;;14.10;;
76262;SDS011;65080;50.908;6.916;2023-06-01T10:28:52;21.40;;;14.97;;
76262;SDS011;65080;50.908;6.916;2023-06-01T10:31:36;19.43;;;15.07;;
76262;SDS011;65080;50.908;6.916;2023-06-01T10:34:06;18.77;;;13.57;;
76262;SDS011;65080;50.908;6.916;2023-06-01T10:39:42;16.80;;;12.70;;
76262;SDS011;65080;50.908;6.916;2023-06-01T10:48:11;19.73;;;14.23;;
76262;SDS011;65080;50.908;6.916;2023-06-01T10:50:41;18.53;;;13.77;;
76262;SDS011;65080;50.908;6.916;2023-06-01T10:53:26;21.30;;;16.80;;
76262;SDS011;65080;50.908;6.916;2023-06-01T10:59:09;23.53;;;15.57;;
76262;SDS011;65080;50.908;6.916;2023-06-01T11:01:46;21.17;;;14.77;;
76262;SDS011;65080;50.908;6.916;2023-06-01T11:04:15;20.03;;;13.97;;
76262;SDS011;65080;50.908;6.916;2023-06-01T11:10:06;21.00;;;14.80;;
76262;SDS011;65080;50.908;6.916;2023-06-01T11:19:03;22.37;;;17.03;;
76262;SDS011;65080;50.908;6.916;2023-06-01T11:21:33;24.47;;;18.90;;
76262;SDS011;65080;50.908;6.916;2023-06-01T11:24:07;31.60;;;19.10;;
76262;SDS011;65080;50.908;6.916;2023-06-01T11:26:41;25.70;;;19.70;;
76262;SDS011;65080;50.908;6.916;2023-06-01T11:29:11;31.60;;;23.23;;
76262;SDS011;65080;50.908;6.916;2023-06-01T11:31:42;29.13;;;21.80;;
76262;SDS011;65080;50.908;6.916;2023-06-01T11:34:28;28.50;;;20.63;;
76262;SDS011;65080;50.908;6.916;2023-06-01T11:37:05;30.97;;;20.77;;
76262;SDS011;65080;50.908;6.916;2023-06-01T11:39:40;31.20;;;22.30;;
76262;SDS011;65080;50.908;6.916;2023-06-01T11:42:09;30.43;;;23.00;;
76262;SDS011;65080;50.908;6.916;2023-06-01T11:44:39;31.73;;;24.60;;
76262;SDS011;65080;50.908;6.916;2023-06-01T11:47:10;28.50;;;23.63;;
76262;SDS011;65080;50.908;6.916;2023-06-01T11:49:41;33.17;;;23.23;;
76262;SDS011;65080;50.908;6.916;2023-06-01T11:52:11;30.40;;;22.90;;
76262;SDS011;65080;50.908;6.916;2023-06-01T11:54:40;32.23;;;23.80;;
76262;SDS011;65080;50.908;6.916;2023-06-01T11:57:08;32.33;;;22.50;;
76262;SDS011;65080;50.908;6.916;2023-06-01T11:59:37;39.47;;;22.50;;
76262;SDS011;65080;50.908;6.916;2023-06-01T12:02:15;33.43;;;23.13;;
76262;SDS011;65080;50.908;6.916;2023-06-01T12:04:55;31.87;;;23.83;;
76262;SDS011;65080;50.908;6.916;2023-06-01T12:07:24;28.03;;;20.43;;
76262;SDS011;65080;50.908;6.916;2023-06-01T12:09:55;24.50;;;19.50;;
76262;SDS011;65080;50.908;6.916;2023-06-01T12:12:28;24.63;;;19.17;;
76262;SDS011;65080;50.908;6.916;2023-06-01T12:15:00;27.47;;;20.07;;
76262;SDS011;65080;50.908;6.916;2023-06-01T12:17:45;25.50;;;18.30;;
76262;SDS011;65080;50.908;6.916;2023-06-01T12:20:28;25.70;;;16.77;;
76262;SDS011;65080;50.908;6.916;2023-06-01T12:22:57;24.33;;;15.73;;
76262;SDS011;65080;50.908;6.916;2023-06-01T12:25:29;19.47;;;15.87;;
76262;SDS011;65080;50.908;6.916;2023-06-01T12:28:00;21.30;;;15.50;;
76262;SDS011;65080;50.908;6.916;2023-06-01T12:30:29;23.40;;;16.90;;
76262;SDS011;65080;50.908;6.916;2023-06-01T12:32:57;21.30;;;15.57;;
76262;SDS011;65080;50.908;6.916;2023-06-01T12:35:28;23.63;;;15.60;;
76262;SDS011;65080;50.908;6.916;2023-06-01T12:38:04;24.00;;;15.70;;
76262;SDS011;65080;50.908;6.916;2023-06-01T12:40:34;30.73;;;16.47;;
76262;SDS011;65080;50.908;6.916;2023-06-01T12:43:03;22.47;;;15.73;;
76262;SDS011;65080;50.908;6.916;2023-06-01T12:45:37;20.33;;;14.70;;
76262;SDS011;65080;50.908;6.916;2023-06-01T12:48:06;20.20;;;13.43;;
76262;SDS011;65080;50.908;6.916;2023-06-01T12:50:43;21.80;;;11.77;;
76262;SDS011;65080;50.908;6.916;2023-06-01T12:53:12;21.10;;;12.87;;
76262;SDS011;65080;50.908;6.916;2023-06-01T12:55:41;17.13;;;12.20;;
76262;SDS011;65080;50.908;6.916;2023-06-01T12:58:09;16.57;;;10.73;;
76262;SDS011;65080;50.908;6.916;2023-06-01T13:00:37;20.87;;;10.50;;
76262;SDS011;65080;50.908;6.916;2023-06-01T13:03:15;15.80;;;9.03;;
76262;SDS011;65080;50.908;6.916;2023-06-01T13:05:45;16.80;;;10.30;;
76262;SDS011;65080;50.908;6.916;2023-06-01T13:08:16;11.60;;;9.07;;
76262;SDS011;65080;50.908;6.916;2023-06-01T13:10:45;20.03;;;9.90;;
76262;SDS011;65080;50.908;6.916;2023-06-01T13:13:14;19.17;;;9.23;;
76262;SDS011;65080;50.908;6.916;2023-06-01T13:15:57;16.70;;;9.23;;
76262;SDS011;65080;50.908;6.916;2023-06-01T13:18:25;17.37;;;8.60;;
76262;SDS011;65080;50.908;6.916;2023-06-01T13:20:56;14.97;;;8.27;;
76262;SDS011;65080;50.908;6.916;2023-06-01T13:23:24;14.17;;;7.80;;
76262;SDS011;65080;50.908;6.916;2023-06-01T13:25:59;12.47;;;8.37;;
76262;SDS011;65080;50.908;6.916;2023-06-01T13:28:53;13.77;;;8.40;;
76262;SDS011;65080;50.908;6.916;2023-06-01T13:31:25;12.63;;;7.73;;
76262;SDS011;65080;50.908;6.916;2023-06-01T13:33:56;16.57;;;7.50;;
76262;SDS011;65080;50.908;6.916;2023-06-01T13:36:26;24.17;;;8.07;;
76262;SDS011;65080;50.908;6.916;2023-06-01T13:38:58;15.77;;;7.73;;
76262;SDS011;65080;50.908;6.916;2023-06-01T13:41:27;9.43;;;5.60;;
76262;SDS011;65080;50.908;6.916;2023-06-01T13:43:57;12.87;;;7.57;;
76262;SDS011;65080;50.908;6.916;2023-06-01T13:46:26;15.90;;;7.80;;
76262;SDS011;65080;50.908;6.916;2023-06-01T13:48:57;15.20;;;7.00;;
76262;SDS011;65080;50.908;6.916;2023-06-01T13:51:27;13.93;;;7.07;;
76262;SDS011;65080;50.908;6.916;2023-06-01T13:53:58;11.93;;;7.37;;
76262;SDS011;65080;50.908;6.916;2023-06-01T13:56:27;10.70;;;6.80;;
76262;SDS011;65080;50.908;6.916;2023-06-01T13:59:03;12.80;;;6.60;;
76262;SDS011;65080;50.908;6.916;2023-06-01T14:01:31;14.67;;;7.23;;
76262;SDS011;65080;50.908;6.916;2023-06-01T14:04:01;13.13;;;7.67;;
76262;SDS011;65080;50.908;6.916;2023-06-01T14:06:37;13.20;;;7.17;;
76262;SDS011;65080;50.908;6.916;2023-06-01T14:09:10;16.77;;;7.57;;
76262;SDS011;65080;50.908;6.916;2023-06-01T14:11:42;11.50;;;7.30;;
76262;SDS011;65080;50.908;6.916;2023-06-01T14:14:10;14.17;;;7.67;;
76262;SDS011;65080;50.908;6.916;2023-06-01T14:16:39;15.50;;;7.30;;
76262;SDS011;65080;50.908;6.916;2023-06-01T14:19:16;11.80;;;6.83;;
76262;SDS011;65080;50.908;6.916;2023-06-01T14:21:46;9.20;;;5.93;;
76262;SDS011;65080;50.908;6.916;2023-06-01T14:24:15;11.97;;;6.40;;
76262;SDS011;65080;50.908;6.916;2023-06-01T14:26:43;13.53;;;6.03;;
76262;SDS011;65080;50.908;6.916;2023-06-01T14:29:12;10.00;;;6.40;;
76262;SDS011;65080;50.908;6.916;2023-06-01T14:31:43;7.90;;;5.70;;
76262;SDS011;65080;50.908;6.916;2023-06-01T14:34:11;15.70;;;6.80;;
76262;SDS011;65080;50.908;6.916;2023-06-01T14:36:40;9.40;;;5.50;;
76262;SDS011;65080;50.908;6.916;2023-06-01T14:39:14;12.33;;;6.10;;
76262;SDS011;65080;50.908;6.916;2023-06-01T14:41:43;11.40;;;5.63;;
76262;SDS011;65080;50.908;6.916;2023-06-01T14:44:11;8.53;;;5.47;;
76262;SDS011;65080;50.908;6.916;2023-06-01T14:46:40;10.93;;;6.53;;
76262;SDS011;65080;50.908;6.916;2023-06-01T14:49:08;9.70;;;6.10;;
76262;SDS011;65080;50.908;6.916;2023-06-01T14:51:37;9.70;;;5.90;;
76262;SDS011;65080;50.908;6.916;2023-06-01T14:54:05;13.93;;;7.60;;
76262;SDS011;65080;50.908;6.916;2023-06-01T14:56:35;9.93;;;6.07;;
76262;SDS011;65080;50.908;6.916;2023-06-01T14:59:04;14.80;;;7.37;;
76262;SDS011;65080;50.908;6.916;2023-06-01T15:01:32;11.70;;;6.60;;
76262;SDS011;65080;50.908;6.916;2023-06-01T15:04:01;11.53;;;6.70;;
76262;SDS011;65080;50.908;6.916;2023-06-01T15:06:29;10.67;;;5.70;;
76262;SDS011;65080;50.908;6.916;2023-06-01T15:08:58;12.23;;;6.47;;
76262;SDS011;65080;50.908;6.916;2023-06-01T15:11:26;13.73;;;5.90;;
76262;SDS011;65080;50.908;6.916;2023-06-01T15:13:57;11.90;;;6.20;;
76262;SDS011;65080;50.908;6.916;2023-06-01T15:16:25;9.90;;;5.50;;
76262;SDS011;65080;50.908;6.916;2023-06-01T15:18:54;8.93;;;5.80;;